Latest Weather Observations for Cultana (Defence)

IDS60801

Issued at 9:51 pm CST Thursday 24 September 2020 (issued every 10 minutes, with the page automatically refreshed every 10 minutes)

About weather observations | Map of weather stations | Latest weather observations for SA | Other Formats
Station Details ID: 018229 Name: CULTANA (DEFENCE) Lat: -32.68 Lon: 137.37 Height: 171.0 m
Data from the previous 72 hours. | See also: Recent months at Cultana (Defence)
Date/Time
CST
Temp
°C
App
Temp
°C
Dew
Point
°C
Rel
Hum
%
Delta-T
°C
Wind Press
QNH
hPa
Press
MSL
hPa
Rain since
9am
mm
Dir  Spd
km/h
Gust
km/h
Spd
kts
Gust
kts
24/09:30pm 8.8 4.1 7.6 92 0.6 WSW 22 24 12 13 - - 2.2
24/09:00pm 8.9 3.0 7.4 90 0.7 WSW 28 35 15 19 - - 2.2
24/08:30pm 9.4 1.4 7.5 88 0.9 WSW 39 48 21 26 - - 2.2
24/08:25pm 10.2 4.2 8.6 90 0.8 W 30 48 16 26 - - 2.2
24/08:00pm 10.6 6.1 8.7 88 0.9 WNW 22 28 12 15 - - 2.0
24/07:30pm 10.8 6.4 9.1 89 0.9 WNW 22 26 12 14 - - 2.0
24/07:00pm 11.2 5.4 9.5 89 0.9 WNW 30 35 16 19 - - 2.0
24/06:30pm 11.5 5.6 9.2 86 1.2 WNW 30 37 16 20 - - 2.0
24/06:00pm 11.2 4.0 9.1 87 1.1 W 37 46 20 25 - - 2.0
24/05:30pm 11.3 2.8 9.4 88 1.0 W 44 61 24 33 - - 2.0
24/05:27pm 11.5 3.6 9.2 86 1.2 W 41 61 22 33 - - 1.8
24/05:00pm 11.6 5.0 10.0 90 0.8 W 35 46 19 25 - - 1.8
24/04:30pm 12.8 5.3 9.6 81 1.6 W 39 50 21 27 - - 1.6
24/04:00pm 12.5 4.8 10.0 85 1.3 W 41 50 22 27 - - 1.6
24/03:34pm 11.8 3.7 10.7 93 0.6 WSW 44 63 24 34 - - 1.4
24/03:30pm 11.6 1.9 10.5 93 0.6 WSW 52 72 28 39 - - 1.4
24/03:24pm 11.8 -0.3 10.7 93 0.6 W 65 96 35 52 - - 1.0
24/03:17pm 14.3 5.2 9.7 74 2.4 WNW 48 96 26 52 - - 0.0
24/03:16pm 15.7 6.6 7.0 56 4.3 WNW 44 96 24 52 - - 0.0
24/03:15pm 16.1 7.3 5.7 50 5.0 WNW 41 61 22 33 - - 0.0
24/03:00pm 17.0 8.4 4.7 44 5.9 WNW 39 52 21 28 - - 0.0
24/02:30pm 17.6 8.9 4.2 41 6.4 NW 39 50 21 27 - - 0.0
24/02:00pm 17.4 8.7 4.0 41 6.3 WNW 39 52 21 28 - - 0.0
24/01:30pm 16.9 8.0 2.9 39 6.4 WNW 39 52 21 28 - - 0.0
24/01:26pm 17.2 8.6 2.8 38 6.6 W 37 52 20 28 - - 0.0
24/01:00pm 17.3 10.4 2.5 37 6.8 NW 28 43 15 23 - - 0.0
24/12:30pm 16.4 9.1 2.4 39 6.4 WNW 30 41 16 22 - - 0.0
24/12:00pm 15.8 9.0 3.3 43 5.8 WNW 28 39 15 21 - - 0.0
24/11:30am 15.9 8.8 3.4 43 5.8 WNW 30 43 16 23 - - 0.0
24/11:00am 14.6 7.2 4.0 49 4.9 W 32 39 17 21 - - 0.0
24/10:30am 14.0 7.8 4.3 52 4.5 W 26 33 14 18 - - 0.0
24/10:00am 13.4 8.9 4.0 53 4.3 WNW 17 32 9 17 - - 0.0
24/09:30am 13.4 9.2 5.8 60 3.6 NW 17 24 9 13 - - 0.0
24/09:00am 11.7 7.2 6.2 69 2.6 WNW 19 20 10 11 - - 0.0
24/08:30am 11.7 5.2 4.9 63 3.1 WNW 28 35 15 19 - - 0.0
24/08:00am 11.4 6.9 4.4 62 3.2 NW 17 20 9 11 - - 0.0
24/07:30am 10.3 7.3 4.2 66 2.7 NW 9 13 5 7 - - 0.0
24/07:00am 9.4 6.0 3.8 68 2.5 NW 11 13 6 7 - - 0.0
24/06:30am 8.4 4.8 3.1 69 2.3 NW 11 13 6 7 - - 0.0
24/06:00am 8.4 5.2 3.1 69 2.3 WNW 9 13 5 7 - - 0.0
24/05:30am 8.2 3.9 3.3 71 2.1 W 15 17 8 9 - - 0.0
24/05:00am 7.9 4.0 3.2 72 2.0 W 13 17 7 9 - - 0.0
24/04:30am 8.0 4.0 2.7 69 2.2 W 13 15 7 8 - - 0.0
24/04:00am 7.8 3.0 2.7 70 2.2 WNW 17 17 9 9 - - 0.0
24/03:30am 7.5 3.1 2.6 71 2.1 W 15 17 8 9 - - 0.0
24/03:00am 7.6 3.2 2.7 71 2.1 W 15 17 8 9 - - 0.0
24/02:30am 8.1 4.5 3.0 70 2.2 W 11 13 6 7 - - 0.0
24/02:00am 8.3 5.1 3.2 70 2.2 W 9 9 5 5 - - 0.0
24/01:30am 8.6 5.1 3.6 71 2.2 WSW 11 13 6 7 - - 0.0
24/01:00am 8.7 4.9 4.1 73 2.0 WSW 13 17 7 9 - - 0.0
24/12:30am 8.9 5.2 4.7 75 1.9 WSW 13 19 7 10 - - 0.0
24/12:00am 9.2 6.6 6.3 82 1.4 SSW 9 11 5 6 - - 0.0
 
Date/Time
CST
Temp
°C
App
Temp
°C
Dew
Point
°C
Rel
Hum
%
Delta-T
°C
Wind Press
QNH
hPa
Press
MSL
hPa
Rain since
9am
mm
Dir  Spd
km/h
Gust
km/h
Spd
kts
Gust
kts
23/11:30pm 9.5 7.2 7.3 86 1.1 S 9 11 5 6 - - 0.0
23/11:00pm 9.6 7.3 7.5 87 1.0 S 9 11 5 6 - - 0.0
23/10:30pm 9.8 7.2 7.6 86 1.1 S 11 13 6 7 - - 0.0
23/10:00pm 10.5 7.5 7.7 83 1.4 S 13 17 7 9 - - 0.0
23/09:30pm 11.4 8.4 7.9 79 1.7 S 13 19 7 10 - - 0.0
23/09:00pm 11.6 8.6 7.9 78 1.8 S 13 17 7 9 - - 0.0
23/08:30pm 11.8 7.7 7.9 77 1.9 S 19 24 10 13 - - 0.0
23/08:00pm 12.2 8.6 8.3 77 1.9 SSE 17 20 9 11 - - 0.0
23/07:30pm 12.6 8.6 8.3 75 2.1 SSE 19 26 10 14 - - 0.0
23/07:00pm 12.6 8.4 8.3 75 2.1 SSE 20 26 11 14 - - 0.0
23/06:30pm 12.8 8.2 8.1 73 2.3 SSE 22 32 12 17 - - 0.0
23/06:00pm 13.5 9.5 8.4 71 2.6 SE 19 24 10 13 - - 0.0
23/05:30pm 14.2 9.3 8.4 68 2.9 SE 24 33 13 18 - - 0.0
23/05:00pm 15.4 11.1 7.9 61 3.8 SE 20 32 11 17 - - 0.0
23/04:30pm 17.5 10.8 3.4 39 6.6 WSW 28 35 15 19 - - 0.0
23/04:00pm 17.9 10.5 4.1 40 6.6 WSW 32 43 17 23 - - 0.0
23/03:30pm 18.0 10.5 4.6 41 6.4 WSW 33 48 18 26 - - 0.0
23/03:00pm 17.8 12.4 4.4 41 6.4 WSW 22 43 12 23 - - 0.0
23/02:37pm 17.8 10.6 5.1 43 6.2 WSW 32 50 17 27 - - 0.0
23/02:30pm 17.1 9.0 5.1 45 5.8 WSW 37 50 20 27 - - 0.0
23/02:00pm 17.5 10.4 3.8 40 6.5 SW 30 41 16 22 - - 0.0
23/01:30pm 17.3 10.6 3.6 40 6.4 W 28 37 15 20 - - 0.0
23/01:00pm 17.7 10.1 2.8 37 6.9 WSW 32 43 17 23 - - 0.0
23/12:30pm 17.4 11.1 4.0 41 6.3 WSW 26 39 14 21 - - 0.0
23/12:00pm 15.8 8.8 3.9 45 5.5 WSW 30 43 16 23 - - 0.0
23/11:30am 17.1 10.0 5.4 46 5.7 WSW 32 44 17 24 - - 0.0
23/11:00am 15.4 7.9 4.2 47 5.2 WSW 33 43 18 23 - - 0.0
23/10:30am 15.9 8.5 5.2 49 5.1 WSW 33 43 18 23 - - 0.0
23/10:00am 14.1 6.9 4.9 54 4.3 WSW 32 46 17 25 - - 0.0
23/09:30am 13.9 7.1 5.3 56 4.1 WSW 30 39 16 21 - - 0.0
23/09:00am 13.4 5.7 5.3 58 3.8 WSW 35 46 19 25 - - 0.0
23/08:30am 12.8 7.8 6.4 65 3.1 W 22 32 12 17 - - 0.0
23/08:00am 11.5 7.5 8.4 81 1.5 WNW 19 24 10 13 - - 0.0
23/07:30am 10.3 6.8 8.7 90 0.8 WNW 17 20 9 11 - - 0.0
23/07:00am 9.6 6.7 8.2 91 0.7 WNW 13 17 7 9 - - 0.0
23/06:30am 9.2 5.9 8.1 93 0.5 WNW 15 19 8 10 - - 0.0
23/06:00am 8.8 5.3 7.4 91 0.7 WNW 15 19 8 10 - - 0.0
23/05:30am 8.4 4.9 7.0 91 0.7 WNW 15 19 8 10 - - 0.0
23/05:00am 8.4 4.8 6.9 90 0.7 W 15 17 8 9 - - 0.0
23/04:30am 8.3 4.7 6.9 91 0.7 W 15 19 8 10 - - 0.0
23/04:00am 8.5 5.3 7.0 90 0.7 WNW 13 15 7 8 - - 0.0
23/03:30am 9.4 5.9 7.3 87 1.0 WNW 15 19 8 10 - - 0.0
23/03:00am 10.2 6.4 7.6 84 1.3 W 17 20 9 11 - - 0.0
23/02:30am 10.0 6.5 7.4 84 1.2 W 15 17 8 9 - - 0.0
23/02:00am 10.0 6.1 7.3 83 1.3 WNW 17 20 9 11 - - 0.0
23/01:30am 9.6 5.7 7.0 84 1.2 W 17 19 9 10 - - 0.0
23/01:00am 9.3 4.9 6.7 84 1.2 W 19 19 10 10 - - 0.0
23/12:30am 9.5 5.9 6.6 82 1.4 W 15 17 8 9 - - 0.0
23/12:00am 9.8 5.8 6.7 81 1.5 W 17 19 9 10 - - 0.0
 
Date/Time
CST
Temp
°C
App
Temp
°C
Dew
Point
°C
Rel
Hum
%
Delta-T
°C
Wind Press
QNH
hPa
Press
MSL
hPa
Rain since
9am
mm
Dir  Spd
km/h
Gust
km/h
Spd
kts
Gust
kts
22/11:30pm 10.5 6.0 6.8 78 1.8 W 20 24 11 13 - - 0.0
22/11:00pm 10.8 5.9 7.1 78 1.8 W 22 26 12 14 - - 0.0
22/10:30pm 11.3 5.7 7.2 76 2.0 WSW 26 28 14 15 - - 0.0
22/10:00pm 11.7 7.3 7.4 75 2.1 WSW 20 24 11 13 - - 0.0
22/09:30pm 12.3 6.7 7.2 71 2.5 WSW 26 32 14 17 - - 0.0
22/09:00pm 13.0 6.2 7.0 67 2.9 WSW 32 41 17 22 - - 0.0
22/08:30pm 13.0 7.7 6.8 66 3.0 WSW 24 30 13 16 - - 0.0
22/08:00pm 13.6 7.1 6.7 63 3.4 WSW 30 39 16 21 - - 0.0
22/07:30pm 14.2 7.3 6.6 60 3.7 WSW 32 41 17 22 - - 0.0
22/07:00pm 14.7 7.6 6.3 57 4.1 WSW 33 43 18 23 - - 0.0
22/06:30pm 14.9 6.3 6.7 58 4.0 WSW 41 57 22 31 - - 0.0
22/06:26pm 15.2 7.3 6.2 55 4.4 W 37 57 20 31 - - 0.0
22/06:00pm 15.8 8.8 6.0 52 4.8 WSW 32 41 17 22 - - 0.0
22/05:30pm 16.4 8.9 6.5 52 4.9 WSW 35 41 19 22 - - 0.0
22/05:00pm 15.8 7.6 8.1 60 3.9 WSW 41 52 22 28 - - 0.0
22/04:30pm 17.4 10.8 6.0 47 5.6 WSW 30 44 16 24 - - 0.0
22/04:00pm 17.6 9.4 6.5 48 5.5 WSW 39 52 21 28 - - 0.0
22/03:30pm 17.7 10.7 5.9 46 5.8 W 32 41 17 22 - - 0.0
22/03:00pm 18.1 11.1 6.0 45 6.0 W 32 52 17 28 - - 0.0
22/02:51pm 18.1 11.1 6.0 45 6.0 W 32 52 17 28 - - 0.0
22/02:30pm 18.3 10.9 6.8 47 5.8 W 35 44 19 24 - - 0.0
22/02:00pm 19.4 12.4 6.2 42 6.6 W 32 43 17 23 - - 0.0
22/01:57pm 19.1 12.0 5.6 41 6.7 W 32 43 17 23 - - 0.0
22/01:30pm 17.5 10.3 7.5 52 5.1 W 35 44 19 24 - - 0.0
22/01:12pm 17.1 9.7 6.9 51 5.1 W 35 57 19 31 - - 0.0
22/01:00pm 17.7 11.3 5.3 44 6.0 WNW 28 39 15 21 - - 0.0
22/12:30pm 17.6 10.8 6.8 49 5.4 W 32 43 17 23 - - 0.0
22/12:00pm 17.4 11.2 6.3 48 5.5 WNW 28 39 15 21 - - 0.0
22/11:30am 16.7 8.7 5.6 48 5.4 WNW 37 44 20 24 - - 0.0
22/11:00am 16.4 8.5 6.2 51 5.0 W 37 50 20 27 - - 0.0
22/10:30am 15.4 7.8 5.9 53 4.6 WNW 35 44 19 24 - - 0.0
22/10:00am 15.3 7.9 6.6 56 4.3 WNW 35 48 19 26 - - 0.0
22/09:30am 14.2 7.1 6.3 59 3.8 W 33 48 18 26 - - 0.0
22/09:00am 14.2 7.4 6.8 61 3.6 WNW 32 41 17 22 - - 0.0
22/08:30am 13.4 7.4 7.0 65 3.1 WNW 28 35 15 19 - - 0.0
22/08:00am 12.5 6.9 7.2 70 2.6 WNW 26 33 14 18 - - 0.0
22/07:30am 11.5 6.6 7.0 74 2.2 NW 22 30 12 16 - - 0.0
22/07:00am 10.8 5.5 6.9 77 1.9 NW 24 30 13 16 - - 0.0
22/06:30am 9.8 5.2 6.5 80 1.6 NW 20 24 11 13 - - 0.0
22/06:00am 9.9 5.5 6.6 80 1.6 NW 19 20 10 11 - - 0.0
22/05:30am 9.8 5.2 6.7 81 1.5 NW 20 22 11 12 - - 0.0
22/05:00am 9.9 5.9 6.8 81 1.5 NNW 17 20 9 11 - - 0.0
22/04:30am 10.0 6.1 6.9 81 1.5 NNW 17 20 9 11 - - 0.0
22/04:00am 10.2 6.3 6.9 80 1.6 NW 17 19 9 10 - - 0.0
22/03:30am 10.4 7.3 7.1 80 1.6 NNW 13 19 7 10 - - 0.0
22/03:00am 10.7 7.3 7.6 81 1.5 NNW 15 17 8 9 - - 0.0
22/02:30am 10.9 7.1 7.6 80 1.6 NW 17 20 9 11 - - 0.0
22/02:00am 11.4 7.1 7.9 79 1.7 NW 20 28 11 15 - - 0.0
22/01:30am 12.3 7.2 7.6 73 2.3 WNW 24 35 13 19 - - 0.0
22/01:00am 12.1 8.3 7.4 73 2.3 NW 17 22 9 12 - - 0.0
22/12:30am 12.2 7.3 7.1 71 2.5 WNW 22 28 12 15 - - 0.0
22/12:00am 12.5 7.7 7.2 70 2.6 WNW 22 30 12 16 - - 0.0
 
Date/Time
CST
Temp
°C
App
Temp
°C
Dew
Point
°C
Rel
Hum
%
Delta-T
°C
Wind Press
QNH
hPa
Press
MSL
hPa
Rain since
9am
mm
Dir  Spd
km/h
Gust
km/h
Spd
kts
Gust
kts
21/11:30pm 12.5 7.7 7.2 70 2.6 W 22 32 12 17 - - 0.0
21/11:00pm 13.0 6.6 7.0 67 2.9 W 30 43 16 23 - - 0.0
21/10:30pm 13.2 7.9 6.8 65 3.1 WNW 24 30 13 16 - - 0.0
21/10:00pm 13.7 7.3 7.0 64 3.3 W 30 41 16 22 - - 0.0

Other formats

Comma delimited format used in spreadsheet applications
http://www.bom.gov.au/fwo/IDS60801/IDS60801.95683.axf

JavaScript Object Notation format (JSON) in row-major order
http://www.bom.gov.au/fwo/IDS60801/IDS60801.95683.json

Data quality

Most of these data are generated automatically and are frequently updated. Quality checks on data are not normally performed. It is possible for incorrect values to appear. Refer to information at About Latest Weather Observations and please check the disclaimer before using these data.